Terminal Aerodrome Forecast
Issued by NWS

Home | Current Version | Previous Version | Text Only | Print | Product List | Glossary On
Versions: 1 2 3 4 5 6 7 8 9 10 11 12 13 14 15 16 17 18 19 20
194
FTUS41 KBTV 030538
TAFRUT
TAF
KRUT 030538Z 0306/0406 30006KT P6SM VCSH BKN035 OVC050
      TEMPO 0307/0311 5SM -SHSN BR BKN028
     FM031100 31005KT P6SM OVC035
     FM031500 32010G21KT P6SM OVC025
     FM032100 32007KT P6SM OVC040=

USA.gov is the U.S. government's official web portal to all federal, state and local government web resources and services.